Time;durP1;ratioP1;P1;durP2;ratioP2;P2;SDS_P1;SDS_P2;PMS_P1;PMS_P2;Temp;Humidity;BMP_temperature;BMP_pressure;BME280_temperature;BME280_humidity;BME280_pressure;Samples;Min_cycle;Max_cycle;Signal;HPM_P1;HPM_P2
2022/02/26 00:01:05;;;;;;;22.08;5.38;;;;;;;3.99;87.73;101516.00;4945271;29;20035;-77
2022/02/26 00:03:31;;;;;;;21.80;5.20;;;;;;;3.94;87.66;101498.44;4942754;29;20050;-77
2022/02/26 00:05:56;;;;;;;22.27;5.10;;;;;;;4.02;87.44;101503.94;4943558;29;20042;-78
2022/02/26 00:08:21;;;;;;;18.23;4.03;;;;;;;4.04;86.79;101519.69;4927338;29;20067;-77
2022/02/26 00:10:47;;;;;;;17.30;3.95;;;;;;;4.03;86.70;101523.97;4943528;29;20110;-77
2022/02/26 00:13:12;;;;;;;28.60;4.03;;;;;;;4.07;86.33;101515.44;4940672;29;20040;-78
2022/02/26 00:15:37;;;;;;;24.02;4.05;;;;;;;4.10;85.85;101517.28;4943773;29;20035;-77
2022/02/26 00:18:03;;;;;;;23.27;4.95;;;;;;;4.11;86.15;101517.34;4943439;29;20090;-78
2022/02/26 00:20:28;;;;;;;17.20;3.60;;;;;;;4.06;85.80;101524.13;4942978;28;20456;-78
2022/02/26 00:22:54;;;;;;;20.50;4.97;;;;;;;4.07;85.83;101531.13;4944477;28;20051;-77
2022/02/26 00:25:19;;;;;;;21.67;4.20;;;;;;;4.06;85.52;101523.22;4945479;29;20051;-77
2022/02/26 00:27:44;;;;;;;22.55;4.50;;;;;;;4.06;85.38;101538.88;4942596;29;20055;-77
2022/02/26 00:30:10;;;;;;;23.65;4.03;;;;;;;4.06;85.12;101539.81;4943540;29;20062;-78
2022/02/26 00:32:36;;;;;;;22.45;4.32;;;;;;;4.04;84.97;101546.69;4942925;29;20031;-77
2022/02/26 00:35:01;;;;;;;27.67;4.47;;;;;;;3.97;85.08;101547.28;4944779;29;20035;-77
2022/02/26 00:37:27;;;;;;;17.75;4.07;;;;;;;3.89;85.25;101547.00;4941860;29;20067;-77
2022/02/26 00:39:53;;;;;;;21.52;4.85;;;;;;;3.91;84.86;101563.63;4942309;29;20042;-77
2022/02/26 00:42:18;;;;;;;21.35;3.60;;;;;;;3.87;84.94;101563.44;4943368;29;20043;-77
2022/02/26 00:44:44;;;;;;;21.40;5.32;;;;;;;3.79;85.35;101570.97;4942349;28;20138;-78
2022/02/26 00:47:09;;;;;;;23.98;5.18;;;;;;;3.74;84.86;101562.97;4948128;29;20102;-78
2022/02/26 00:49:47;;;;;;;20.38;3.95;;;;;;;3.69;85.55;101571.47;4945652;29;20039;-77
2022/02/26 00:52:23;;;;;;;20.33;4.80;;;;;;;3.64;85.22;101575.63;4945018;29;20094;-78
2022/02/26 00:54:50;;;;;;;28.15;4.95;;;;;;;3.62;85.24;101574.69;4948104;28;20035;-77
2022/02/26 00:57:16;;;;;;;25.60;5.22;;;;;;;3.56;85.15;101592.69;4947663;29;20039;-77
2022/02/26 00:59:42;;;;;;;26.27;4.18;;;;;;;3.59;85.14;101592.81;4944870;28;20053;-77
2022/02/26 01:02:09;;;;;;;20.20;4.20;;;;;;;3.55;85.21;101588.31;4947214;29;20121;-78
2022/02/26 01:04:36;;;;;;;24.23;3.33;;;;;;;3.56;84.84;101597.91;4945191;28;20031;-77
2022/02/26 01:07:03;;;;;;;23.52;4.25;;;;;;;3.62;84.22;101599.06;4950325;29;20381;-77
2022/02/26 01:09:29;;;;;;;29.95;3.67;;;;;;;3.67;83.78;101613.19;4944519;29;20035;-77
2022/02/26 01:11:54;;;;;;;26.42;4.25;;;;;;;3.83;82.60;101606.84;4946743;29;20039;-77
2022/02/26 01:14:20;;;;;;;22.80;4.30;;;;;;;3.93;82.18;101616.81;4946139;29;20035;-77
2022/02/26 01:16:45;;;;;;;20.13;4.22;;;;;;;4.02;81.17;101611.03;4950110;28;20070;-77
2022/02/26 01:19:11;;;;;;;25.30;4.30;;;;;;;3.99;81.93;101610.03;4946228;29;20593;-78
2022/02/26 01:21:36;;;;;;;26.77;4.93;;;;;;;4.05;81.26;101621.59;4946967;29;20031;-77
2022/02/26 01:24:02;;;;;;;28.00;4.80;;;;;;;4.10;80.71;101620.03;4945603;29;20055;-77
2022/02/26 01:26:29;;;;;;;23.40;4.07;;;;;;;4.13;80.35;101629.72;4928270;29;20032;-77
2022/02/26 01:28:55;;;;;;;20.10;3.53;;;;;;;4.16;80.18;101629.84;4947283;29;20462;-77
2022/02/26 01:31:20;;;;;;;25.35;3.85;;;;;;;4.24;79.61;101628.41;4947153;29;20035;-77
2022/02/26 01:33:46;;;;;;;22.50;3.58;;;;;;;4.27;78.94;101628.53;4928547;29;20035;-77
2022/02/26 01:36:12;;;;;;;16.02;3.53;;;;;;;4.30;79.51;101632.97;4947277;28;20031;-77
2022/02/26 01:38:38;;;;;;;18.92;3.35;;;;;;;4.30;79.53;101633.88;4945993;29;20480;-77
2022/02/26 01:41:05;;;;;;;20.45;3.45;;;;;;;4.34;79.68;101634.84;4946978;29;20067;-77
2022/02/26 01:43:33;;;;;;;28.23;3.72;;;;;;;4.28;79.94;101656.44;4948665;29;20023;-77
2022/02/26 01:45:59;;;;;;;19.40;3.92;;;;;;;4.37;79.79;101629.72;4946196;29;20053;-77
2022/02/26 01:48:24;;;;;;;23.80;4.28;;;;;;;4.39;79.69;101649.00;4944137;29;20428;-77
2022/02/26 01:50:49;;;;;;;24.20;3.63;;;;;;;4.36;79.90;101636.69;4946761;29;20078;-77
2022/02/26 01:53:15;;;;;;;23.38;3.67;;;;;;;4.34;80.37;101640.09;4944459;29;20078;-77
2022/02/26 01:55:40;;;;;;;21.60;3.58;;;;;;;4.37;79.75;101641.06;4947085;29;20031;-77
2022/02/26 01:58:06;;;;;;;22.15;3.40;;;;;;;4.34;80.01;101646.19;4946527;28;20038;-77
2022/02/26 02:00:31;;;;;;;21.58;3.72;;;;;;;4.34;80.09;101650.53;4943739;29;20098;-77
2022/02/26 02:02:57;;;;;;;21.42;3.83;;;;;;;4.29;80.78;101652.09;4946185;29;20039;-77
2022/02/26 02:05:30;;;;;;;24.58;3.58;;;;;;;4.30;80.78;101649.53;4944708;28;20114;-77
2022/02/26 02:07:57;;;;;;;23.50;3.45;;;;;;;4.26;80.93;101651.97;4947309;29;20045;-77
2022/02/26 02:10:22;;;;;;;21.27;4.93;;;;;;;4.25;80.88;101651.09;4946452;29;20031;-77
2022/02/26 02:12:48;;;;;;;24.48;4.93;;;;;;;4.27;80.89;101657.28;4944262;29;20066;-77
2022/02/26 02:15:14;;;;;;;19.15;3.90;;;;;;;4.22;80.58;101644.84;4944718;29;20122;-77
2022/02/26 02:17:44;;;;;;;23.92;4.65;;;;;;;4.34;80.26;101664.50;4946073;29;20043;-77
2022/02/26 02:20:10;;;;;;;16.58;3.10;;;;;;;4.26;80.26;101659.81;4946307;28;20056;-77
2022/02/26 02:22:35;;;;;;;19.30;3.90;;;;;;;4.34;80.16;101661.88;4944424;29;20087;-77
2022/02/26 02:25:04;;;;;;;23.20;4.25;;;;;;;4.32;80.17;101660.03;4942965;29;20412;-77
2022/02/26 02:27:29;;;;;;;26.10;4.38;;;;;;;4.24;80.47;101664.09;4946364;29;20043;-77
2022/02/26 02:29:55;;;;;;;22.95;4.45;;;;;;;4.24;80.99;101664.97;4943422;28;20036;-77
2022/02/26 02:32:20;;;;;;;21.58;4.60;;;;;;;4.26;80.69;101663.31;4944789;29;20031;-77
2022/02/26 02:34:45;;;;;;;19.33;4.18;;;;;;;4.28;80.43;101668.63;4945061;28;20053;-77
2022/02/26 02:37:11;;;;;;;21.05;4.30;;;;;;;4.28;80.30;101664.28;4947118;29;20110;-77
2022/02/26 02:39:40;;;;;;;20.83;4.18;;;;;;;4.21;80.92;101674.44;4941915;29;20074;-77
2022/02/26 02:42:06;;;;;;;20.55;4.70;;;;;;;4.25;80.58;101672.00;4944784;29;20487;-77
2022/02/26 02:44:31;;;;;;;23.98;4.47;;;;;;;4.25;80.70;101671.13;4945352;29;20043;-77
2022/02/26 02:46:57;;;;;;;24.70;4.30;;;;;;;4.21;80.55;101675.31;4943746;29;20075;-77
2022/02/26 02:49:22;;;;;;;23.50;3.63;;;;;;;4.19;80.94;101687.44;4946688;28;20050;-77
2022/02/26 02:51:48;;;;;;;20.70;3.78;;;;;;;4.19;80.61;101676.97;4926631;29;20252;-77
2022/02/26 02:54:13;;;;;;;32.88;4.53;;;;;;;4.18;80.79;101675.22;4944765;29;20078;-78
2022/02/26 02:56:38;;;;;;;20.92;4.13;;;;;;;4.17;80.73;101686.50;4945779;29;20031;-77
2022/02/26 02:59:04;;;;;;;20.42;3.63;;;;;;;4.16;81.02;101687.31;4942894;28;20040;-77
2022/02/26 03:01:29;;;;;;;27.10;4.97;;;;;;;4.17;80.47;101683.88;4945586;29;20035;-77
2022/02/26 03:03:54;;;;;;;21.15;3.78;;;;;;;4.18;80.57;101685.66;4926986;29;20103;-77
2022/02/26 03:06:24;;;;;;;21.08;5.20;;;;;;;4.18;80.12;101691.78;4945577;28;20046;-77
2022/02/26 03:08:49;;;;;;;23.50;3.90;;;;;;;4.20;80.10;101699.69;4944320;28;20046;-77
2022/02/26 03:11:15;;;;;;;20.63;3.78;;;;;;;4.18;79.81;101693.50;4945398;29;20043;-77
2022/02/26 03:13:41;;;;;;;17.42;3.22;;;;;;;4.23;79.59;101718.09;4926829;29;20408;-77
2022/02/26 03:16:08;;;;;;;23.48;3.97;;;;;;;4.21;80.18;101713.63;4943873;29;20079;-77
2022/02/26 03:18:33;;;;;;;23.00;3.90;;;;;;;4.18;80.15;101710.06;4944529;29;20039;-77
2022/02/26 03:20:59;;;;;;;28.08;4.60;;;;;;;4.23;79.87;101710.25;4946104;29;20031;-78
2022/02/26 03:23:24;;;;;;;18.77;3.20;;;;;;;4.19;80.03;101713.56;4951275;29;20072;-77
2022/02/26 03:25:49;;;;;;;24.65;4.03;;;;;;;4.24;79.83;101722.47;4938628;29;20569;-77
2022/02/26 03:28:15;;;;;;;23.67;3.85;;;;;;;4.22;79.74;101721.53;4942874;29;20488;-77
2022/02/26 03:30:40;;;;;;;30.20;5.43;;;;;;;4.20;80.24;101724.94;4945161;29;20510;-77
2022/02/26 03:33:06;;;;;;;25.70;4.28;;;;;;;4.17;79.91;101730.94;4942472;29;20039;-77
2022/02/26 03:35:32;;;;;;;24.30;3.85;;;;;;;4.19;79.74;101724.00;4946223;28;20039;-77
2022/02/26 03:37:57;;;;;;;17.67;4.65;;;;;;;4.20;80.00;101736.25;4944226;29;20526;-77
2022/02/26 03:40:22;;;;;;;29.00;3.72;;;;;;;4.20;79.88;101733.66;4942407;29;20043;-77
2022/02/26 03:42:48;;;;;;;19.30;4.25;;;;;;;4.23;79.91;101735.50;4944798;29;20080;-77
2022/02/26 03:45:15;;;;;;;32.55;4.45;;;;;;;4.21;79.79;101740.66;4942906;29;20044;-77
2022/02/26 03:47:41;;;;;;;22.83;3.30;;;;;;;4.23;80.54;101746.84;4943442;29;20047;-77
2022/02/26 03:50:07;;;;;;;23.30;5.10;;;;;;;4.26;80.10;101746.06;4944618;28;20035;-77
2022/02/26 03:52:32;;;;;;;23.83;4.28;;;;;;;4.21;80.54;101748.47;4941924;29;20039;-77
2022/02/26 03:54:57;;;;;;;23.05;3.60;;;;;;;4.27;80.34;101753.97;4943252;29;20035;-77
2022/02/26 03:57:23;;;;;;;22.83;3.53;;;;;;;4.27;80.55;101758.28;4943368;29;20496;-77
2022/02/26 03:59:48;;;;;;;24.88;4.03;;;;;;;4.25;80.50;101763.47;4942787;28;20042;-77
2022/02/26 04:02:14;;;;;;;21.35;3.80;;;;;;;4.25;80.22;101760.84;4927738;29;20098;-77
2022/02/26 04:04:39;;;;;;;21.77;3.65;;;;;;;4.23;80.16;101775.56;4942138;28;20039;-77
2022/02/26 04:07:06;;;;;;;22.77;3.88;;;;;;;4.21;79.93;101772.00;4945010;29;20047;-77
2022/02/26 04:09:32;;;;;;;24.00;4.60;;;;;;;4.21;80.27;101782.47;4943548;29;20039;-77
2022/02/26 04:11:58;;;;;;;16.10;3.85;;;;;;;4.13;80.58;101784.75;4941738;29;20040;-77
2022/02/26 04:14:24;;;;;;;21.35;3.47;;;;;;;4.19;80.11;101786.72;4944998;29;20715;-77
2022/02/26 04:16:49;;;;;;;20.02;3.95;;;;;;;4.18;80.56;101801.53;4942623;29;20469;-77
2022/02/26 04:19:14;;;;;;;19.38;3.90;;;;;;;4.22;80.07;101801.63;4943378;28;20046;-77
2022/02/26 04:21:40;;;;;;;17.65;3.42;;;;;;;4.20;79.85;101804.22;4947093;29;20118;-77
2022/02/26 04:24:06;;;;;;;20.88;4.68;;;;;;;4.21;80.18;101811.19;4945473;29;20049;-77
2022/02/26 04:26:31;;;;;;;23.23;4.45;;;;;;;4.25;79.27;101817.47;4948170;29;20046;-77
2022/02/26 04:28:57;;;;;;;16.35;3.53;;;;;;;4.18;79.57;101811.97;4945672;28;20115;-77
2022/02/26 04:31:23;;;;;;;19.67;4.10;;;;;;;4.22;79.48;101813.00;4947108;29;20558;-77
2022/02/26 04:33:49;;;;;;;21.20;3.55;;;;;;;4.22;79.16;101815.63;4945472;29;20043;-77
2022/02/26 04:36:14;;;;;;;19.80;3.97;;;;;;;4.17;79.16;101818.03;4950724;28;20114;-77
2022/02/26 04:38:40;;;;;;;21.67;4.40;;;;;;;4.18;79.53;101824.16;4946093;29;20063;-77
2022/02/26 04:41:06;;;;;;;18.50;3.33;;;;;;;4.18;79.54;101821.53;4946118;29;20050;-77
2022/02/26 04:43:34;;;;;;;19.50;3.40;;;;;;;4.05;80.68;101830.59;4930386;29;20035;-77
2022/02/26 04:45:59;;;;;;;17.80;2.88;;;;;;;3.81;82.16;101835.69;4944899;29;20031;-77
2022/02/26 04:48:24;;;;;;;24.33;4.55;;;;;;;3.64;84.10;101837.59;4948038;29;20038;-77
2022/02/26 04:50:50;;;;;;;25.48;4.80;;;;;;;3.51;85.18;101844.00;4947569;29;20127;-78
2022/02/26 04:53:15;;;;;;;25.92;4.57;;;;;;;3.38;86.58;101846.91;4946549;29;20067;-77
2022/02/26 04:55:40;;;;;;;19.58;3.78;;;;;;;3.34;86.69;101862.34;4948599;28;20458;-77
2022/02/26 04:58:06;;;;;;;23.92;4.45;;;;;;;3.24;87.59;101866.25;4949608;28;20042;-77
2022/02/26 05:00:32;;;;;;;23.90;4.45;;;;;;;3.24;87.61;101858.44;4947371;29;20031;-78
2022/02/26 05:02:57;;;;;;;20.92;3.58;;;;;;;3.16;88.23;101854.59;4947531;29;20047;-78
2022/02/26 05:05:22;;;;;;;22.50;3.53;;;;;;;3.15;89.25;101858.03;4947532;28;20081;-78
2022/02/26 05:07:48;;;;;;;22.67;4.32;;;;;;;3.16;89.19;101865.91;4948757;29;20065;-78
2022/02/26 05:10:13;;;;;;;19.15;4.13;;;;;;;3.15;89.04;101871.06;4945624;28;20460;-77
2022/02/26 05:12:38;;;;;;;22.60;4.03;;;;;;;3.10;90.15;101862.16;4946745;29;20118;-77
2022/02/26 05:15:04;;;;;;;22.25;4.57;;;;;;;3.15;90.30;101873.69;4946780;29;20044;-77
2022/02/26 05:17:30;;;;;;;27.70;5.00;;;;;;;3.15;90.05;101876.28;4948419;29;20037;-78
2022/02/26 05:19:55;;;;;;;25.73;4.07;;;;;;;3.18;89.98;101879.03;4951687;28;20043;-77
2022/02/26 05:22:21;;;;;;;21.23;3.75;;;;;;;3.20;89.93;101882.63;4913961;29;20083;-77
2022/02/26 05:24:46;;;;;;;19.60;4.50;;;;;;;3.22;90.65;101887.09;4946990;29;20043;-77
2022/02/26 05:27:11;;;;;;;23.05;3.88;;;;;;;3.32;90.16;101884.88;4944627;29;20115;-78
2022/02/26 05:29:37;;;;;;;24.10;4.82;;;;;;;3.31;89.79;101888.31;4948387;28;20039;-78
2022/02/26 05:32:02;;;;;;;28.77;4.07;;;;;;;3.33;90.27;101892.78;4950438;28;20027;-77
2022/02/26 05:34:28;;;;;;;21.88;3.90;;;;;;;3.35;89.72;101892.84;4946266;28;20492;-77
2022/02/26 05:36:53;;;;;;;22.10;4.63;;;;;;;3.41;89.54;101900.97;4948999;29;20039;-77
2022/02/26 05:39:18;;;;;;;33.50;5.50;;;;;;;3.39;89.17;101897.38;4945652;29;20047;-78
2022/02/26 05:41:43;;;;;;;22.50;4.28;;;;;;;3.40;89.05;101904.38;4947486;29;20043;-77
2022/02/26 05:44:09;;;;;;;22.83;4.07;;;;;;;3.39;89.43;101918.25;4945610;29;20148;-77
2022/02/26 05:46:34;;;;;;;24.02;4.70;;;;;;;3.39;89.33;101913.03;4946829;29;20141;-78
2022/02/26 05:49:01;;;;;;;21.35;3.95;;;;;;;3.48;88.71;101923.88;4946802;29;20074;-78
2022/02/26 05:51:26;;;;;;;28.20;4.00;;;;;;;3.51;89.09;101927.53;4944640;29;20047;-77
2022/02/26 05:53:51;;;;;;;23.73;3.90;;;;;;;3.56;88.90;101927.72;4947533;29;20035;-77
2022/02/26 05:56:16;;;;;;;33.85;6.25;;;;;;;3.60;88.28;101939.22;4945640;29;20050;-77
2022/02/26 05:58:42;;;;;;;25.02;5.38;;;;;;;3.63;88.04;101939.34;4945794;28;20034;-78
2022/02/26 06:01:07;;;;;;;24.17;5.35;;;;;;;3.64;88.09;101935.88;4946853;29;20035;-78
2022/02/26 06:03:33;;;;;;;24.35;4.25;;;;;;;3.63;88.37;101944.56;4944757;29;20039;-77
2022/02/26 06:05:58;;;;;;;21.05;5.47;;;;;;;3.63;88.26;101937.63;4945139;28;20035;-77
2022/02/26 06:08:23;;;;;;;21.23;4.88;;;;;;;3.63;88.44;101947.19;4946152;29;20035;-77
2022/02/26 06:10:48;;;;;;;28.02;4.78;;;;;;;3.62;87.74;101948.00;4946428;29;20043;-77
2022/02/26 06:13:14;;;;;;;37.30;6.63;;;;;;;3.63;88.36;101950.66;4944266;29;20399;-77
2022/02/26 06:15:39;;;;;;;23.73;4.82;;;;;;;3.63;88.96;101939.34;4947108;29;20502;-77
2022/02/26 06:18:04;;;;;;;22.50;5.13;;;;;;;3.68;88.43;101948.28;4945068;29;20527;-77
2022/02/26 06:20:30;;;;;;;22.27;4.53;;;;;;;3.66;88.69;101957.75;4945691;28;20453;-77
2022/02/26 06:22:55;;;;;;;28.50;6.13;;;;;;;3.65;88.70;101964.69;4945992;29;20126;-77
2022/02/26 06:25:21;;;;;;;25.23;6.03;;;;;;;3.70;88.25;101963.19;4930089;29;20555;-77
2022/02/26 06:27:46;;;;;;;30.10;5.70;;;;;;;3.71;88.49;101964.06;4945910;29;20039;-77
2022/02/26 06:30:14;;;;;;;30.95;6.00;;;;;;;3.74;88.11;101964.19;4944998;29;20046;-77
2022/02/26 06:32:39;;;;;;;33.83;5.40;;;;;;;3.70;87.47;101971.03;4927595;29;20050;-76
2022/02/26 06:35:07;;;;;;;33.53;5.13;;;;;;;3.73;87.86;101980.72;4925978;29;20039;-76
2022/02/26 06:37:32;;;;;;;26.00;5.43;;;;;;;3.70;87.13;101985.78;4945974;29;20051;-76
2022/02/26 06:39:58;;;;;;;25.73;5.65;;;;;;;3.71;87.84;101991.06;4943787;28;20028;-77
2022/02/26 06:42:24;;;;;;;29.48;5.47;;;;;;;3.73;87.89;101994.66;4926219;28;20500;-76
2022/02/26 06:44:49;;;;;;;28.17;5.15;;;;;;;3.81;87.06;101992.38;4928284;29;20047;-77
2022/02/26 06:47:15;;;;;;;23.17;5.72;;;;;;;3.85;86.58;101996.94;4942817;29;20050;-76
2022/02/26 06:49:40;;;;;;;19.48;4.72;;;;;;;3.87;86.46;101997.88;4944968;28;20090;-77
2022/02/26 06:52:06;;;;;;;28.58;5.95;;;;;;;3.91;86.47;101994.59;4943803;29;20036;-76
2022/02/26 06:54:32;;;;;;;23.85;5.13;;;;;;;3.94;86.18;101999.94;4943265;29;20130;-76
2022/02/26 06:56:59;;;;;;;26.17;5.20;;;;;;;3.93;85.98;102006.00;4944520;29;20152;-76
2022/02/26 06:59:25;;;;;;;27.05;6.18;;;;;;;3.94;86.44;102012.13;4944965;28;20078;-77
2022/02/26 07:01:50;;;;;;;23.38;5.03;;;;;;;4.03;85.64;102020.34;4943673;29;20047;-77
2022/02/26 07:04:16;;;;;;;21.42;5.18;;;;;;;4.08;85.34;102017.94;4942067;29;20103;-77
2022/02/26 07:06:44;;;;;;;26.08;4.50;;;;;;;4.04;85.82;102016.94;4945452;28;20032;-76
2022/02/26 07:09:11;;;;;;;21.35;4.63;;;;;;;4.11;85.20;102025.91;4944496;29;20133;-77
2022/02/26 07:11:37;;;;;;;24.33;5.45;;;;;;;4.13;85.71;102037.31;4942975;29;20047;-76
2022/02/26 07:14:03;;;;;;;26.13;5.43;;;;;;;4.15;85.00;102038.28;4944643;29;20035;-76
2022/02/26 07:16:28;;;;;;;25.80;4.85;;;;;;;4.18;85.08;102027.97;4942361;29;20035;-77
2022/02/26 07:18:53;;;;;;;20.60;3.63;;;;;;;4.22;84.46;102026.38;4944828;29;20411;-76
2022/02/26 07:21:19;;;;;;;25.77;6.00;;;;;;;4.26;84.24;102028.31;4943101;29;20443;-77
2022/02/26 07:23:44;;;;;;;27.65;5.45;;;;;;;4.33;83.28;102031.25;4943329;29;20531;-76
2022/02/26 07:26:09;;;;;;;26.23;5.47;;;;;;;4.31;83.82;102040.75;4944818;29;20402;-75
2022/02/26 07:28:35;;;;;;;28.60;5.45;;;;;;;4.31;84.15;102039.84;4945855;28;20053;-76
2022/02/26 07:31:00;;;;;;;27.42;5.00;;;;;;;4.28;83.44;102045.84;4944261;29;20523;-76
2022/02/26 07:33:26;;;;;;;21.52;4.22;;;;;;;4.27;83.53;102046.69;4942806;29;20559;-76
2022/02/26 07:35:51;;;;;;;21.70;5.57;;;;;;;4.27;84.17;102061.44;4945184;28;20550;-76
2022/02/26 07:38:16;;;;;;;18.50;4.70;;;;;;;4.29;84.12;102055.47;4941915;29;20036;-76
2022/02/26 07:40:42;;;;;;;25.05;4.90;;;;;;;4.39;83.97;102054.16;4944854;29;20472;-75
2022/02/26 07:43:08;;;;;;;26.25;5.43;;;;;;;4.39;83.78;102055.03;4933805;29;20035;-77
2022/02/26 07:45:34;;;;;;;25.20;5.15;;;;;;;4.46;83.64;102074.50;4947701;29;20035;-76
2022/02/26 07:47:59;;;;;;;27.63;4.80;;;;;;;4.49;83.94;102063.28;4944431;29;20039;-76
2022/02/26 07:50:25;;;;;;;18.25;3.72;;;;;;;4.55;82.95;102058.31;4941750;29;20044;-76
2022/02/26 07:52:50;;;;;;;25.08;5.07;;;;;;;4.66;83.05;102066.63;4944168;29;20066;-76
2022/02/26 07:55:15;;;;;;;25.58;5.15;;;;;;;4.72;82.49;102078.25;4944327;28;20130;-76
2022/02/26 07:57:41;;;;;;;27.58;4.90;;;;;;;4.74;81.98;102067.81;4946851;29;20138;-76
2022/02/26 08:00:08;;;;;;;17.08;4.05;;;;;;;4.85;81.78;102082.28;4948569;29;20035;-75
2022/02/26 08:02:36;;;;;;;29.30;4.65;;;;;;;5.00;82.13;102085.53;4946102;29;20047;-76
2022/02/26 08:05:01;;;;;;;20.08;4.68;;;;;;;5.14;81.87;102082.59;4946432;29;20046;-76
2022/02/26 08:07:26;;;;;;;27.45;5.90;;;;;;;5.33;81.68;102090.34;4930517;29;20046;-76
2022/02/26 08:09:52;;;;;;;20.17;3.75;;;;;;;5.44;79.71;102090.75;4945607;28;20401;-77
2022/02/26 08:12:17;;;;;;;23.60;4.00;;;;;;;5.65;77.73;102085.47;4948291;28;20085;-77
2022/02/26 08:14:43;;;;;;;36.47;5.43;;;;;;;5.60;78.06;102089.63;4949358;29;20100;-77
2022/02/26 08:17:09;;;;;;;28.90;4.78;;;;;;;5.58;77.61;102092.22;4929659;29;20078;-76
2022/02/26 08:19:35;;;;;;;22.92;4.82;;;;;;;5.54;75.94;102116.50;4947974;28;20042;-76
2022/02/26 08:22:00;;;;;;;22.30;4.35;;;;;;;5.46;76.60;102112.66;4945139;29;20118;-76
2022/02/26 08:24:26;;;;;;;22.73;4.50;;;;;;;5.36;78.16;102105.28;4947841;29;20043;-76
2022/02/26 08:26:52;;;;;;;24.48;5.05;;;;;;;5.49;77.87;102115.41;4946833;29;20052;-77
2022/02/26 08:29:17;;;;;;;21.40;3.97;;;;;;;5.53;77.25;102121.66;4928760;29;20046;-76
2022/02/26 08:31:43;;;;;;;24.05;4.63;;;;;;;5.63;77.49;102132.59;4946785;29;20411;-75
2022/02/26 08:34:08;;;;;;;27.55;4.63;;;;;;;5.70;76.09;102118.88;4947941;29;20094;-76
2022/02/26 08:36:34;;;;;;;23.17;4.60;;;;;;;5.77;76.19;102121.75;4945989;29;20035;-76
2022/02/26 08:38:59;;;;;;;30.13;4.43;;;;;;;5.86;75.37;102124.72;4946285;28;20415;-76
2022/02/26 08:41:25;;;;;;;19.38;4.60;;;;;;;5.86;75.30;102137.81;4930637;29;20052;-75
2022/02/26 08:43:50;;;;;;;26.88;5.38;;;;;;;5.88;75.31;102137.03;4948611;28;20031;-76
2022/02/26 08:46:16;;;;;;;24.80;4.82;;;;;;;5.92;74.34;102133.72;4945500;29;20031;-76
2022/02/26 08:48:41;;;;;;;28.02;4.85;;;;;;;5.97;75.12;102144.38;4945489;28;20046;-75
2022/02/26 08:51:06;;;;;;;24.17;4.88;;;;;;;6.07;74.60;102133.41;4945848;29;20492;-76
2022/02/26 08:53:32;;;;;;;21.20;4.38;;;;;;;6.18;73.26;102135.56;4947703;29;20531;-76
2022/02/26 08:55:57;;;;;;;27.80;5.80;;;;;;;6.06;72.95;102139.50;4947056;29;20082;-75
2022/02/26 08:58:23;;;;;;;18.52;4.00;;;;;;;6.24;73.60;102148.91;4947007;29;20039;-76
2022/02/26 09:00:49;;;;;;;22.95;4.57;;;;;;;6.34;72.96;102148.38;4946333;29;20115;-76
2022/02/26 09:03:15;;;;;;;28.38;4.78;;;;;;;6.41;72.58;102133.78;4945063;29;20126;-76
2022/02/26 09:05:41;;;;;;;19.05;4.65;;;;;;;6.49;72.81;102150.69;4946886;28;20459;-76
2022/02/26 09:08:06;;;;;;;24.80;4.50;;;;;;;6.44;71.50;102150.50;4945026;29;20042;-76
2022/02/26 09:10:32;;;;;;;16.92;4.20;;;;;;;6.42;72.00;102154.84;4946111;28;20596;-76
2022/02/26 09:12:57;;;;;;;24.95;5.38;;;;;;;6.50;72.47;102158.63;4945966;28;20040;-76
2022/02/26 09:15:23;;;;;;;20.05;3.92;;;;;;;6.55;72.45;102167.56;4930410;29;20039;-77
2022/02/26 09:17:48;;;;;;;21.95;4.13;;;;;;;6.62;71.54;102167.78;4944470;29;20142;-76
2022/02/26 09:20:14;;;;;;;18.58;3.53;;;;;;;6.61;72.11;102168.63;4945272;29;20045;-75
2022/02/26 09:22:40;;;;;;;18.15;3.72;;;;;;;6.72;71.65;102176.03;4928489;29;20123;-76
2022/02/26 09:25:06;;;;;;;22.23;5.78;;;;;;;6.65;70.12;102194.13;4944630;29;20071;-77
2022/02/26 09:27:32;;;;;;;26.13;5.65;;;;;;;6.57;71.36;102183.34;4946421;29;20118;-76
2022/02/26 09:29:58;;;;;;;20.65;3.95;;;;;;;6.60;70.25;102186.06;4949830;29;20745;-76
2022/02/26 09:32:24;;;;;;;21.85;4.22;;;;;;;6.70;70.68;102198.69;4945345;29;20499;-77
2022/02/26 09:34:49;;;;;;;16.15;3.75;;;;;;;6.77;68.95;102195.47;4943389;29;20031;-77
2022/02/26 09:37:15;;;;;;;16.58;4.07;;;;;;;6.75;69.62;102209.34;4950426;29;20408;-76
2022/02/26 09:39:41;;;;;;;22.33;4.82;;;;;;;6.76;69.63;102208.53;4946624;28;20035;-76
2022/02/26 09:42:06;;;;;;;21.25;4.13;;;;;;;6.73;69.67;102203.16;4944977;29;20095;-76
2022/02/26 09:44:32;;;;;;;21.88;4.38;;;;;;;6.76;69.64;102211.16;4947721;28;20054;-76
2022/02/26 09:46:58;;;;;;;19.98;3.90;;;;;;;6.69;68.82;102217.00;4946248;29;20038;-76
2022/02/26 09:49:24;;;;;;;19.00;4.00;;;;;;;6.51;68.43;102233.84;4933893;29;20050;-76
2022/02/26 09:51:50;;;;;;;21.73;4.28;;;;;;;6.25;69.67;102229.34;4945763;29;20035;-76
2022/02/26 09:54:16;;;;;;;21.90;4.63;;;;;;;6.25;69.53;102230.22;4945443;29;20496;-76
2022/02/26 09:56:41;;;;;;;18.05;3.45;;;;;;;6.13;70.30;102235.91;4944191;29;20043;-76
2022/02/26 09:59:06;;;;;;;22.95;4.15;;;;;;;6.10;69.77;102240.13;4946384;29;20042;-76
2022/02/26 10:01:32;;;;;;;18.80;3.42;;;;;;;6.10;70.23;102248.91;4943836;29;20054;-76
2022/02/26 10:04:10;;;;;;;20.45;3.60;;;;;;;6.14;70.41;102250.78;4945270;29;20038;-76
2022/02/26 10:06:35;;;;;;;13.00;3.55;;;;;;;6.15;70.81;102257.81;4946541;29;20035;-76
2022/02/26 10:09:02;;;;;;;25.08;3.53;;;;;;;6.21;70.03;102258.88;4943976;28;20044;-75
2022/02/26 10:11:31;;;;;;;16.55;3.20;;;;;;;6.16;70.34;102266.59;4944554;29;20035;-76
2022/02/26 10:14:11;;;;;;;16.73;3.45;;;;;;;6.27;69.88;102267.91;4948351;28;20039;-77
2022/02/26 10:16:54;;;;;;;16.92;4.47;;;;;;;6.22;69.97;102260.69;4945405;29;20050;-76
2022/02/26 10:19:27;;;;;;;15.10;3.17;;;;;;;6.30;70.04;102269.75;4945401;29;20058;-76
2022/02/26 10:21:58;;;;;;;18.05;4.82;;;;;;;6.23;69.79;102265.97;4945950;29;20118;-76
2022/02/26 10:24:24;;;;;;;14.23;4.20;;;;;;;6.09;68.18;102269.78;4943780;29;20043;-76
2022/02/26 10:27:03;;;;;;;14.45;3.13;;;;;;;6.13;69.27;102274.31;4945232;29;20511;-76
2022/02/26 10:29:29;;;;;;;18.75;3.95;;;;;;;6.26;69.00;102279.25;4944041;28;20036;-76
2022/02/26 10:31:58;;;;;;;15.63;3.38;;;;;;;6.25;67.46;102282.66;4943907;29;20102;-76
2022/02/26 10:34:36;;;;;;;16.77;3.08;;;;;;;6.15;67.30;102280.50;4945988;29;20035;-76
2022/02/26 10:37:09;;;;;;;16.33;4.00;;;;;;;6.25;67.22;102276.53;4944949;29;20077;-77
2022/02/26 10:39:40;;;;;;;16.15;2.95;;;;;;;6.27;66.62;102277.50;4942823;29;20063;-77
2022/02/26 10:42:08;;;;;;;19.77;4.38;;;;;;;6.33;67.67;102276.00;4944022;29;20415;-76
2022/02/26 10:44:35;;;;;;;12.35;2.60;;;;;;;6.39;67.03;102285.81;4944523;28;20546;-76
2022/02/26 10:47:13;;;;;;;17.40;2.85;;;;;;;6.34;67.24;102284.75;4932316;29;20109;-76
2022/02/26 10:49:47;;;;;;;16.38;2.50;;;;;;;6.35;65.64;102278.69;4945027;28;20035;-76
2022/02/26 10:52:15;;;;;;;15.57;3.10;;;;;;;6.41;65.73;102273.69;4945417;29;20122;-77
2022/02/26 10:54:42;;;;;;;18.10;3.28;;;;;;;6.46;66.14;102286.97;4944623;29;20506;-76
2022/02/26 10:57:10;;;;;;;18.00;3.20;;;;;;;6.53;66.20;102278.50;4942759;29;20042;-76
2022/02/26 10:59:39;;;;;;;13.88;3.10;;;;;;;6.47;65.81;102284.44;4945556;28;20079;-76
2022/02/26 11:02:08;;;;;;;10.98;2.10;;;;;;;6.53;64.90;102289.91;4943833;29;20114;-75
2022/02/26 11:04:35;;;;;;;13.77;3.33;;;;;;;6.49;65.83;102285.34;4942639;29;20044;-76
2022/02/26 11:07:01;;;;;;;12.23;2.63;;;;;;;6.45;65.70;102288.72;4945424;29;20051;-76
2022/02/26 11:09:28;;;;;;;18.08;3.38;;;;;;;6.49;66.01;102289.72;4946476;28;20131;-76
2022/02/26 11:11:58;;;;;;;17.40;4.43;;;;;;;6.48;64.52;102286.19;4943125;29;20122;-77
2022/02/26 11:14:26;;;;;;;18.55;3.65;;;;;;;6.41;65.11;102294.66;4946093;28;20480;-76
2022/02/26 11:16:56;;;;;;;14.55;3.47;;;;;;;6.47;64.84;102283.50;4943233;29;20224;-76
2022/02/26 11:19:25;;;;;;;15.32;3.92;;;;;;;6.43;63.46;102282.50;4944459;28;20126;-76